»·PEaware :: UAL891 KSJC-KSAN

UAL891 :: KSJC-KSAN

FLIGHT INFORMATION

Flight Status: Arrived
Operator:
United Airlines
More flights by this operator :: More flights under this callsign
Pilot: Anonymous 15267 (15267)
Aircraft: BOEING 737-200
(B732)
More flights by this aircraft type
Origin: KSJC Mineta San Jose Intl
United States
Destination: KSAN San Diego Intl-Lindbergh
United States
More flights between these airports :: More routes between these airports
Route: SJC3 AVE J1 LAX HUBRD1
File this flight plan on PilotEdge
Remarks: RMK / SIMBRIEF
Altitude:
(Current/Filed)
33,000ft
Speed:
(Current/Filed)
428kts
Departed: 12-Nov-19 03:22 PM
Arrived: 12-Nov-19 04:31 PM
Distance/Time
Traveled:
362nm/1:09
Distance/Time
To Go:
Arrived

Flight Plot

Page will automatically refresh every two minutes.

Flight plan parsing failed; only flown route is shown


Map Options




Map Legend


Flown Route
Filed Route
Departure Airport
Arrival Airport
Navaid (VOR, NDB)
Fix

Horizontal Profiles

Position Reports

Time Latitude Longitude Heading Altitude Ground
Speed
12-Nov-19 15:01 37.367213 -121.927730 48 51ft 0kts
12-Nov-19 15:02 37.367213 -121.927730 48 51ft 0kts
12-Nov-19 15:03 37.367213 -121.927730 48 51ft 0kts
12-Nov-19 15:04 37.367213 -121.927730 48 51ft 0kts
12-Nov-19 15:05 37.367213 -121.927730 48 51ft 0kts
12-Nov-19 15:06 37.367213 -121.927730 48 51ft 0kts
12-Nov-19 15:07 37.367213 -121.927730 48 51ft 0kts
12-Nov-19 15:08 37.367213 -121.927730 48 51ft 0kts
12-Nov-19 15:08 37.367213 -121.927730 48 51ft 0kts
12-Nov-19 15:10 37.367213 -121.927730 48 51ft 0kts
12-Nov-19 15:11 37.367213 -121.927730 48 51ft 0kts
12-Nov-19 15:11 37.367184 -121.927772 48 51ft 2kts
12-Nov-19 15:12 37.366843 -121.928386 87 50ft 2kts
12-Nov-19 15:13 37.366966 -121.928741 138 50ft 0kts
12-Nov-19 15:14 37.366966 -121.928741 138 50ft 0kts
12-Nov-19 15:15 37.366966 -121.928741 138 50ft 0kts
12-Nov-19 15:16 37.364954 -121.926525 138 53ft 14kts
12-Nov-19 15:17 37.362330 -121.923635 141 58ft 11kts
12-Nov-19 15:18 37.359405 -121.920447 139 62ft 18kts
12-Nov-19 15:19 37.354725 -121.915299 138 66ft 26kts
12-Nov-19 15:20 37.353066 -121.914519 227 68ft 0kts
12-Nov-19 15:21 37.353579 -121.916710 318 66ft 44kts
12-Nov-19 15:22 37.382742 -121.949802 320 1366ft 170kts
12-Nov-19 15:23 37.422691 -121.937639 79 3207ft 217kts
12-Nov-19 15:24 37.396697 -121.864780 150 4935ft 270kts
12-Nov-19 15:25 37.335991 -121.797893 124 5012ft 316kts
12-Nov-19 15:26 37.287086 -121.716908 131 7119ft 281kts
12-Nov-19 15:27 37.231649 -121.648013 139 9439ft 287kts
12-Nov-19 15:28 37.167314 -121.585349 144 11676ft 303kts
12-Nov-19 15:29 37.092924 -121.518401 143 13225ft 346kts
12-Nov-19 15:30 37.016006 -121.442644 139 15620ft 356kts
12-Nov-19 15:31 36.941148 -121.358552 136 17645ft 370kts
12-Nov-19 15:32 36.869147 -121.269942 135 19323ft 382kts
12-Nov-19 15:33 36.792771 -121.175097 136 20855ft 393kts
12-Nov-19 15:34 36.712221 -121.079930 138 22201ft 405kts
12-Nov-19 15:35 36.626456 -120.986193 140 23426ft 415kts
12-Nov-19 15:36 36.536601 -120.894325 142 24533ft 424kts
12-Nov-19 15:37 36.443662 -120.802507 142 25596ft 430kts
12-Nov-19 15:38 36.350925 -120.707165 138 26555ft 437kts
12-Nov-19 15:39 36.258051 -120.609512 141 27429ft 442kts
12-Nov-19 15:40 36.160909 -120.514606 141 28299ft 445kts
12-Nov-19 15:41 36.064878 -120.418385 139 29035ft 450kts
12-Nov-19 15:42 35.970129 -120.316249 138 29827ft 450kts
12-Nov-19 15:43 35.879511 -120.217737 140 30538ft 451kts
12-Nov-19 15:44 35.783423 -120.120004 140 31427ft 446kts
12-Nov-19 15:45 35.688896 -120.022220 140 32138ft 444kts
12-Nov-19 15:46 35.592156 -119.930668 156 32713ft 440kts
12-Nov-19 15:47 35.492072 -119.843753 145 33050ft 447kts
12-Nov-19 15:48 35.389081 -119.757477 145 33102ft 448kts
12-Nov-19 15:49 35.286569 -119.671535 145 33110ft 445kts
12-Nov-19 15:50 35.184978 -119.585543 144 33109ft 443kts
12-Nov-19 15:51 35.084146 -119.499623 144 33110ft 443kts
12-Nov-19 15:52 34.982844 -119.413246 144 33110ft 449kts
12-Nov-19 15:53 34.884761 -119.329868 145 33108ft 454kts
12-Nov-19 15:54 34.783479 -119.242742 144 33099ft 457kts
12-Nov-19 15:55 34.678474 -119.154867 145 33090ft 459kts
12-Nov-19 15:56 34.573553 -119.066886 144 33092ft 460kts
12-Nov-19 15:57 34.468966 -118.976857 143 33103ft 461kts
12-Nov-19 15:58 34.364139 -118.887611 144 33121ft 462kts
12-Nov-19 15:59 34.262780 -118.795008 122 32822ft 441kts
12-Nov-19 16:00 34.181066 -118.688180 138 30491ft 442kts
12-Nov-19 16:01 34.087612 -118.592343 142 27650ft 451kts
12-Nov-19 16:02 33.990876 -118.495434 134 25064ft 443kts
12-Nov-19 16:03 33.903405 -118.399156 131 24057ft 402kts
12-Nov-19 16:04 33.834347 -118.304609 130 24064ft 393kts
12-Nov-19 16:05 33.759178 -118.208257 130 24067ft 400kts
12-Nov-19 16:06 33.681763 -118.108658 130 24067ft 416kts
12-Nov-19 16:07 33.601280 -118.005552 130 24057ft 428kts
12-Nov-19 16:08 33.519953 -117.902080 130 23898ft 415kts
12-Nov-19 16:09 33.442450 -117.804357 130 22092ft 401kts
12-Nov-19 16:10 33.366717 -117.708825 129 20132ft 390kts
12-Nov-19 16:11 33.293471 -117.616191 129 18275ft 378kts
12-Nov-19 16:12 33.222799 -117.526030 128 16515ft 365kts
12-Nov-19 16:13 33.155098 -117.438765 131 14798ft 354kts
12-Nov-19 16:14 33.068984 -117.383762 153 13125ft 348kts
12-Nov-19 16:15 32.982397 -117.336813 153 11528ft 336kts
12-Nov-19 16:16 32.903680 -117.292730 153 10918ft 298kts
12-Nov-19 16:17 32.838183 -117.243103 113 9636ft 286kts
12-Nov-19 16:18 32.819533 -117.152454 101 8329ft 279kts
12-Nov-19 16:19 32.804275 -117.062739 101 7067ft 273kts
12-Nov-19 16:20 32.790228 -116.980511 101 6507ft 244kts
12-Nov-19 16:21 32.776711 -116.901562 101 5401ft 242kts
12-Nov-19 16:22 32.740521 -116.847765 182 5000ft 246kts
12-Nov-19 16:23 32.673215 -116.865410 212 4692ft 247kts
12-Nov-19 16:24 32.670985 -116.938570 290 3998ft 233kts
12-Nov-19 16:25 32.689165 -117.005162 286 3338ft 186kts
12-Nov-19 16:26 32.701434 -117.056745 286 2056ft 143kts
12-Nov-19 16:27 32.711781 -117.100517 288 1501ft 132kts
12-Nov-19 16:28 32.722246 -117.142923 285 745ft 131kts
12-Nov-19 16:29 32.732578 -117.185522 286 36ft 129kts
12-Nov-19 16:30 32.734987 -117.198663 250 26ft 0kts
12-Nov-19 16:31 32.734971 -117.198721 251 26ft 0kts
12-Nov-19 16:32 32.734181 -117.199291 149 26ft 10kts
12-Nov-19 16:33 32.733684 -117.198967 149 26ft 0kts
12-Nov-19 16:34 32.733684 -117.198967 149 26ft 0kts

Navigation Log

Ident Type
Flight plan parsing failed, navigation log unavailable